createdAt,value
2023-03-23T15:58:45.268Z,12.68
2023-03-23T16:01:21.368Z,12.56
2023-03-23T16:03:50.608Z,12.38
2023-03-23T16:06:23.388Z,12.29
2023-03-23T16:08:53.943Z,12.03
2023-03-23T16:11:22.976Z,12.15
2023-03-23T16:13:49.890Z,11.94
2023-03-23T16:16:22.781Z,11.68
2023-03-23T16:18:49.895Z,11.63
2023-03-23T16:21:16.871Z,11.64
2023-03-23T16:23:46.331Z,11.78
2023-03-23T16:26:14.742Z,11.68
2023-03-23T16:28:42.789Z,11.78
2023-03-23T16:31:09.738Z,11.84
2023-03-23T16:33:36.590Z,11.90
2023-03-23T16:36:03.797Z,11.92
2023-03-23T16:38:32.099Z,11.99
2023-03-23T16:40:59.461Z,12.02
2023-03-23T16:43:26.318Z,12.01
2023-03-23T16:45:56.403Z,11.74
2023-03-23T16:48:23.780Z,11.62
2023-03-23T16:50:51.754Z,11.32
2023-03-23T16:53:19.132Z,11.30
2023-03-23T16:55:48.441Z,11.17
2023-03-23T16:58:18.076Z,11.07
2023-03-23T17:00:49.639Z,10.89
2023-03-23T17:03:18.474Z,11.11
2023-03-23T17:05:45.920Z,11.24
2023-03-23T17:08:13.215Z,11.16
2023-03-23T17:10:41.284Z,11.32
2023-03-23T17:13:08.494Z,11.30
2023-03-23T17:15:40.337Z,11.29
2023-03-23T17:18:07.888Z,11.27
2023-03-23T17:20:34.914Z,11.01
2023-03-23T17:23:02.209Z,10.86
2023-03-23T17:25:30.824Z,10.94
2023-03-23T17:27:58.397Z,10.72
2023-03-23T17:30:33.148Z,10.63
2023-03-23T17:33:00.229Z,10.55
2023-03-23T17:35:27.303Z,10.41
2023-03-23T17:37:54.121Z,10.35
2023-03-23T17:40:20.972Z,10.28
2023-03-23T17:42:47.776Z,10.11
2023-03-23T17:45:14.694Z,10.11
2023-03-23T17:47:41.550Z,10.02
2023-03-23T17:50:12.395Z,9.74
2023-03-23T17:52:41.137Z,9.63
2023-03-23T17:55:08.451Z,9.83
2023-03-23T17:57:35.907Z,9.62
2023-03-23T18:00:04.368Z,9.54
2023-03-23T18:02:33.994Z,9.61
2023-03-23T18:05:00.929Z,9.73
2023-03-23T18:07:27.872Z,9.65
2023-03-23T18:09:59.738Z,9.64
2023-03-23T18:12:27.278Z,9.74
2023-03-23T18:14:58.340Z,9.73
2023-03-23T18:17:25.845Z,9.80
2023-03-23T18:19:52.675Z,9.79
2023-03-23T18:22:19.655Z,9.84
2023-03-23T18:24:47.437Z,9.91
2023-03-23T18:27:14.670Z,9.83
2023-03-23T18:29:41.499Z,9.77
2023-03-23T18:32:08.592Z,9.81
2023-03-23T18:34:36.707Z,9.67
2023-03-23T18:37:04.153Z,9.61
2023-03-23T18:39:33.995Z,9.66
2023-03-23T18:42:01.217Z,9.37
2023-03-23T18:44:28.108Z,9.29
2023-03-23T18:46:54.993Z,9.25
2023-03-23T18:49:22.118Z,9.36
2023-03-23T18:51:49.085Z,9.18
2023-03-23T18:54:17.456Z,9.10
2023-03-23T18:56:44.350Z,9.03
2023-03-23T18:59:11.430Z,8.99
2023-03-23T19:01:38.283Z,9.09
2023-03-23T19:04:06.792Z,8.99
2023-03-23T19:06:35.165Z,8.98
2023-03-23T19:09:02.436Z,8.92
2023-03-23T19:11:29.301Z,8.86
2023-03-23T19:14:02.331Z,8.94
2023-03-23T19:16:35.775Z,8.98
2023-03-23T19:19:04.296Z,8.90
2023-03-23T19:21:32.378Z,8.87
2023-03-23T19:24:00.727Z,8.86
2023-03-23T19:26:38.328Z,9.09
2023-03-23T19:29:26.241Z,8.88
2023-03-23T19:31:57.495Z,8.97
2023-03-23T19:34:25.960Z,8.91
2023-03-23T19:36:56.372Z,8.88
2023-03-23T19:39:31.470Z,8.89
2023-03-23T19:41:58.557Z,8.91
2023-03-23T19:44:25.645Z,8.89
2023-03-23T19:46:54.362Z,8.97
2023-03-23T19:49:21.496Z,8.91
2023-03-23T19:51:48.339Z,8.62
2023-03-23T19:54:16.080Z,8.52
2023-03-23T19:56:43.379Z,9.02
2023-03-23T19:59:15.517Z,9.08
2023-03-23T20:01:43.509Z,9.08
2023-03-23T20:04:11.512Z,8.97
2023-03-23T20:06:38.990Z,8.73
2023-03-23T20:09:06.599Z,8.80
2023-03-23T20:11:33.997Z,8.78
2023-03-23T20:14:01.556Z,8.84
2023-03-23T20:16:29.226Z,8.81
2023-03-23T20:18:59.937Z,8.89
2023-03-23T20:21:29.458Z,8.72
2023-03-23T20:23:57.758Z,8.52
2023-03-23T20:26:36.861Z,8.52
2023-03-23T20:29:04.752Z,8.44
2023-03-23T20:31:38.038Z,8.53
2023-03-23T20:34:10.826Z,8.36
2023-03-23T20:36:42.302Z,8.25
2023-03-23T20:39:15.040Z,8.26
2023-03-23T20:41:43.482Z,8.26
2023-03-23T20:44:15.855Z,8.09
2023-03-23T20:46:44.301Z,8.12
2023-03-23T20:49:11.243Z,8.06
2023-03-23T20:51:38.100Z,7.90
2023-03-23T20:54:06.152Z,7.83
2023-03-23T20:56:34.221Z,7.91
2023-03-23T20:59:01.996Z,7.74
2023-03-23T21:01:28.987Z,7.76
2023-03-23T21:03:57.099Z,7.62
2023-03-23T21:06:28.575Z,7.65
2023-03-23T21:08:56.990Z,7.55
2023-03-23T21:11:26.047Z,7.56
2023-03-23T21:13:53.245Z,7.64
2023-03-23T21:16:20.418Z,7.51
2023-03-23T21:18:47.768Z,7.45
2023-03-23T21:21:18.389Z,7.61
2023-03-23T21:23:47.588Z,7.60
2023-03-23T21:26:17.104Z,7.49
2023-03-23T21:28:44.816Z,7.49
2023-03-23T21:31:15.129Z,7.40
2023-03-23T21:33:42.169Z,7.40
2023-03-23T21:36:09.673Z,7.44
2023-03-23T21:38:38.309Z,7.42
2023-03-23T21:41:11.666Z,7.43
2023-03-23T21:43:40.796Z,7.09
2023-03-23T21:46:09.167Z,7.37
2023-03-23T21:48:38.818Z,7.25
2023-03-23T21:51:07.923Z,7.38
2023-03-23T21:53:37.083Z,7.34
2023-03-23T21:56:06.268Z,7.39
2023-03-23T21:58:33.660Z,7.49
2023-03-23T22:01:01.131Z,7.59
2023-03-23T22:03:32.694Z,7.57
2023-03-23T22:06:05.465Z,7.65
2023-03-23T22:08:33.350Z,7.67
2023-03-23T22:11:02.105Z,7.65
2023-03-23T22:13:31.044Z,7.63
2023-03-23T22:16:02.690Z,7.71
2023-03-23T22:18:29.720Z,7.69
2023-03-23T22:20:59.082Z,7.60
2023-03-23T22:23:26.956Z,7.56
2023-03-23T22:25:54.530Z,7.60
2023-03-23T22:28:21.375Z,7.52
2023-03-23T22:30:48.313Z,7.54
2023-03-23T22:33:17.682Z,7.56
2023-03-23T22:35:46.118Z,7.55
2023-03-23T22:38:14.291Z,7.56
2023-03-23T22:40:42.593Z,7.55
2023-03-23T22:43:09.549Z,7.55
2023-03-23T22:45:36.430Z,7.51
2023-03-23T22:48:05.785Z,7.60
2023-03-23T22:50:32.622Z,7.70
2023-03-23T22:52:59.482Z,7.69
2023-03-23T22:55:27.189Z,7.70
2023-03-23T22:57:53.995Z,7.64
2023-03-23T23:00:20.885Z,7.60
2023-03-23T23:02:47.880Z,7.62
2023-03-23T23:05:15.309Z,7.71
2023-03-23T23:07:42.733Z,7.78
2023-03-23T23:10:09.693Z,7.72
2023-03-23T23:12:36.797Z,7.77
2023-03-23T23:15:05.921Z,7.72
2023-03-23T23:17:34.863Z,7.88
2023-03-23T23:20:05.533Z,7.84
2023-03-23T23:22:33.616Z,7.85
2023-03-23T23:25:01.189Z,7.83
2023-03-23T23:27:28.072Z,7.90
2023-03-23T23:29:54.918Z,7.99
2023-03-23T23:32:21.803Z,7.95
2023-03-23T23:34:48.596Z,7.88
2023-03-23T23:37:15.694Z,7.79
2023-03-23T23:39:42.630Z,7.75
2023-03-23T23:42:09.612Z,7.61
2023-03-23T23:44:37.051Z,7.63
2023-03-23T23:47:05.087Z,7.59
2023-03-23T23:49:34.261Z,7.64
2023-03-23T23:52:01.258Z,7.67
2023-03-23T23:54:31.168Z,7.64
2023-03-23T23:56:59.295Z,7.47
2023-03-23T23:59:27.220Z,7.47
